createdAt,value
2022-10-14T00:01:24.105Z,15.74
2022-10-14T00:04:03.729Z,15.69
2022-10-14T00:06:34.125Z,15.69
2022-10-14T00:09:06.714Z,15.66
2022-10-14T00:11:36.824Z,15.67
2022-10-14T00:14:14.836Z,15.63
2022-10-14T00:16:46.043Z,15.59
2022-10-14T00:19:15.382Z,15.55
2022-10-14T00:21:45.208Z,15.54
2022-10-14T00:24:17.104Z,15.52
2022-10-14T00:26:45.321Z,15.51
2022-10-14T00:29:20.420Z,15.50
2022-10-14T00:31:49.159Z,15.46
2022-10-14T00:34:16.660Z,15.45
2022-10-14T00:36:44.648Z,15.46
2022-10-14T00:39:17.265Z,15.45
2022-10-14T00:41:45.538Z,15.45
2022-10-14T00:44:15.961Z,15.45
2022-10-14T00:46:50.647Z,15.45
2022-10-14T00:49:33.598Z,15.46
2022-10-14T00:52:10.949Z,15.47
2022-10-14T00:54:53.212Z,15.48
2022-10-14T00:57:24.676Z,15.48
2022-10-14T00:59:56.852Z,15.46
2022-10-14T01:02:24.581Z,15.45
2022-10-14T01:04:52.421Z,15.42
2022-10-14T01:08:14.000Z,15.43
2022-10-14T01:11:14.416Z,15.42
2022-10-14T01:13:50.827Z,15.40
2022-10-14T01:17:06.326Z,15.38
2022-10-14T01:20:15.285Z,15.39
2022-10-14T01:23:46.991Z,15.35
2022-10-14T01:26:34.384Z,15.33
2022-10-14T01:32:51.159Z,15.30
2022-10-14T01:35:51.873Z,15.29
2022-10-14T01:38:30.499Z,15.25
2022-10-14T01:41:25.876Z,15.26
2022-10-14T01:43:58.516Z,15.23
2022-10-14T01:46:29.531Z,15.22
2022-10-14T01:49:04.504Z,15.23
2022-10-14T01:51:44.138Z,15.22
2022-10-14T01:54:22.310Z,15.21
2022-10-14T01:56:53.476Z,15.20
2022-10-14T01:59:40.412Z,15.17
2022-10-14T02:02:08.468Z,15.15
2022-10-14T02:04:35.937Z,15.13
2022-10-14T02:07:33.680Z,15.13
2022-10-14T02:10:22.168Z,15.11
2022-10-14T02:13:26.394Z,15.09
2022-10-14T02:16:00.054Z,15.08
2022-10-14T02:18:45.561Z,15.07
2022-10-14T02:21:37.261Z,15.05
2022-10-14T02:24:14.508Z,15.05
2022-10-14T02:26:44.336Z,15.05
2022-10-14T02:29:12.412Z,15.06
2022-10-14T02:31:43.499Z,15.05
2022-10-14T02:34:18.780Z,15.07
2022-10-14T02:36:47.758Z,15.08
2022-10-14T02:39:27.927Z,15.08
2022-10-14T02:41:57.964Z,15.08
2022-10-14T02:44:25.790Z,15.07
2022-10-14T02:46:56.365Z,15.09
2022-10-14T02:49:23.873Z,15.11
2022-10-14T02:51:51.598Z,15.09
2022-10-14T02:54:19.130Z,15.11
2022-10-14T02:56:46.680Z,15.09
2022-10-14T02:59:14.388Z,15.08
2022-10-14T03:01:41.955Z,15.07
2022-10-14T03:04:10.878Z,15.08
2022-10-14T03:06:40.517Z,15.07
2022-10-14T03:09:08.967Z,15.07
2022-10-14T03:11:40.474Z,15.05
2022-10-14T03:14:13.427Z,15.04
2022-10-14T03:16:42.971Z,15.02
2022-10-14T03:19:15.391Z,15.03
2022-10-14T03:21:49.178Z,15.04
2022-10-14T03:24:20.477Z,15.03
2022-10-14T03:26:55.922Z,15.03
2022-10-14T03:29:26.415Z,15.04
2022-10-14T03:32:13.378Z,15.03
2022-10-14T03:34:59.140Z,15.03
2022-10-14T03:37:27.693Z,15.02
2022-10-14T03:39:58.483Z,15.04
2022-10-14T03:42:26.108Z,15.04
2022-10-14T03:44:54.114Z,15.06
2022-10-14T03:47:26.615Z,15.07
2022-10-14T03:49:54.665Z,15.08
2022-10-14T03:52:33.863Z,15.08
2022-10-14T03:55:07.961Z,15.06
2022-10-14T03:57:35.864Z,15.06
2022-10-14T04:00:07.888Z,15.04
2022-10-14T04:02:44.251Z,14.99
2022-10-14T04:05:34.015Z,14.98
2022-10-14T04:08:08.262Z,14.93
2022-10-14T04:10:37.663Z,14.92
2022-10-14T04:13:05.220Z,14.92
2022-10-14T04:15:39.531Z,14.92
2022-10-14T04:18:15.586Z,14.92
2022-10-14T04:20:44.686Z,14.92
2022-10-14T04:23:14.838Z,14.91
2022-10-14T04:25:45.741Z,14.93
2022-10-14T04:28:14.060Z,14.94
2022-10-14T04:30:50.033Z,14.94
2022-10-14T04:33:23.405Z,14.94
2022-10-14T04:35:51.746Z,14.96
2022-10-14T04:38:27.420Z,14.98
2022-10-14T04:41:00.605Z,14.99
2022-10-14T04:43:30.350Z,15.00
2022-10-14T04:46:06.255Z,15.01
2022-10-14T04:48:34.529Z,15.00
2022-10-14T04:51:02.853Z,15.02
2022-10-14T04:53:47.023Z,15.01
2022-10-14T04:56:30.283Z,15.02
2022-10-14T04:59:02.455Z,15.02
2022-10-14T05:01:51.670Z,15.03
2022-10-14T05:04:20.107Z,15.04
2022-10-14T05:06:49.503Z,15.05
2022-10-14T05:09:19.828Z,15.07
2022-10-14T05:11:47.493Z,15.13
2022-10-14T05:14:19.354Z,15.19
2022-10-14T05:16:50.176Z,15.23
2022-10-14T05:19:25.019Z,15.26
2022-10-14T05:21:54.556Z,15.31
2022-10-14T05:24:34.356Z,15.38
2022-10-14T05:27:03.235Z,15.45
2022-10-14T05:29:32.022Z,15.47
2022-10-14T05:32:00.827Z,15.50
2022-10-14T05:34:36.073Z,15.54
2022-10-14T05:37:05.671Z,15.57
2022-10-14T05:39:41.246Z,15.64
2022-10-14T05:42:09.285Z,15.67
2022-10-14T05:44:37.722Z,15.71
2022-10-14T05:47:05.570Z,15.79
2022-10-14T05:49:33.761Z,15.80
2022-10-14T05:52:04.585Z,15.84
2022-10-14T05:54:33.739Z,15.87
2022-10-14T05:57:04.061Z,15.95
2022-10-14T05:59:33.442Z,16.00
2022-10-14T06:02:02.178Z,16.05
2022-10-14T06:04:30.041Z,16.14
2022-10-14T06:06:58.925Z,16.20
2022-10-14T06:09:26.719Z,16.25
2022-10-14T06:11:54.551Z,16.30
2022-10-14T06:14:22.991Z,16.40
2022-10-14T06:16:52.749Z,16.48
2022-10-14T06:19:20.629Z,16.56
2022-10-14T06:21:48.537Z,16.66
2022-10-14T06:24:16.342Z,16.72
2022-10-14T06:26:44.111Z,16.81
2022-10-14T06:29:11.680Z,16.92
2022-10-14T06:31:39.299Z,17.01
2022-10-14T06:34:07.276Z,17.07
2022-10-14T06:36:35.451Z,17.09
2022-10-14T06:39:04.669Z,17.14
2022-10-14T06:41:33.046Z,17.17
2022-10-14T06:44:00.578Z,17.22
2022-10-14T06:46:28.170Z,17.30
2022-10-14T06:48:55.901Z,17.39
2022-10-14T06:51:23.401Z,17.49
2022-10-14T06:53:50.966Z,17.57
2022-10-14T06:56:18.779Z,17.60
2022-10-14T06:58:46.241Z,17.56
2022-10-14T07:01:13.918Z,17.57
2022-10-14T07:03:42.374Z,17.55
2022-10-14T07:06:10.503Z,17.56
2022-10-14T07:08:38.148Z,17.59
2022-10-14T07:11:06.463Z,17.59
2022-10-14T07:13:34.714Z,17.55
2022-10-14T07:16:02.468Z,17.57
2022-10-14T07:18:30.925Z,17.60
2022-10-14T07:21:06.191Z,17.62
2022-10-14T07:23:34.129Z,17.64
2022-10-14T07:26:02.327Z,17.65
2022-10-14T07:28:30.061Z,17.68
2022-10-14T07:31:10.060Z,17.70
2022-10-14T07:33:40.191Z,17.73
2022-10-14T07:36:13.590Z,17.77
2022-10-14T07:38:44.150Z,17.82
2022-10-14T07:41:20.765Z,17.83
2022-10-14T07:43:51.870Z,17.87
2022-10-14T07:46:29.508Z,17.92
2022-10-14T07:49:02.833Z,17.97
2022-10-14T07:51:31.221Z,18.00
2022-10-14T07:54:00.943Z,18.05
2022-10-14T07:56:29.328Z,18.08
2022-10-14T07:58:59.295Z,18.10
2022-10-14T08:01:27.214Z,18.08
2022-10-14T08:03:54.808Z,18.08
2022-10-14T08:06:22.781Z,18.07
2022-10-14T08:08:50.651Z,18.08
2022-10-14T08:11:23.702Z,18.06
2022-10-14T08:13:52.966Z,18.06
2022-10-14T08:16:28.558Z,18.06
2022-10-14T08:18:59.252Z,18.06
2022-10-14T08:21:27.599Z,18.07
2022-10-14T08:23:55.180Z,18.09
2022-10-14T08:26:53.942Z,18.09
2022-10-14T08:29:24.840Z,18.08
2022-10-14T08:31:55.258Z,18.08
2022-10-14T08:34:24.447Z,18.10
2022-10-14T08:36:52.520Z,18.17
2022-10-14T08:39:21.292Z,18.23
2022-10-14T08:42:13.172Z,18.30
2022-10-14T08:44:51.834Z,18.37
2022-10-14T08:47:30.668Z,18.44
2022-10-14T08:50:05.528Z,18.49
2022-10-14T08:52:53.720Z,18.52
2022-10-14T08:55:39.375Z,18.55
2022-10-14T08:58:20.991Z,18.61
2022-10-14T09:00:52.967Z,18.67
2022-10-14T09:03:33.401Z,18.77
2022-10-14T09:06:22.323Z,18.85
2022-10-14T09:08:50.664Z,18.92
2022-10-14T09:11:24.362Z,18.98
2022-10-14T09:14:02.741Z,19.12
2022-10-14T09:16:38.805Z,19.27
2022-10-14T09:19:35.127Z,19.41
2022-10-14T09:22:02.775Z,19.58
2022-10-14T09:24:35.927Z,19.72
2022-10-14T09:27:22.356Z,19.86
2022-10-14T09:30:04.803Z,19.97
2022-10-14T09:32:41.003Z,20.06
2022-10-14T09:35:29.524Z,20.16
2022-10-14T09:37:57.196Z,20.24
2022-10-14T09:40:40.907Z,20.32
2022-10-14T09:43:11.422Z,20.41
2022-10-14T09:45:47.790Z,20.46
2022-10-14T09:48:32.453Z,20.48
2022-10-14T09:51:11.500Z,20.50
2022-10-14T09:53:53.449Z,20.50
2022-10-14T09:56:49.511Z,20.49
2022-10-14T09:59:22.503Z,20.50
2022-10-14T10:01:57.829Z,20.51
2022-10-14T10:04:32.486Z,20.53
2022-10-14T10:07:05.926Z,20.58
2022-10-14T10:09:34.791Z,20.61
2022-10-14T10:12:25.413Z,20.65
2022-10-14T10:15:04.972Z,20.68
2022-10-14T10:17:36.103Z,20.71
2022-10-14T10:20:33.606Z,20.71
2022-10-14T10:23:26.703Z,20.74
2022-10-14T10:25:54.414Z,20.77
2022-10-14T10:28:33.197Z,20.80
2022-10-14T10:31:19.624Z,20.79
2022-10-14T10:34:33.176Z,20.78
2022-10-14T10:37:26.241Z,20.77
2022-10-14T10:40:31.291Z,20.79
2022-10-14T10:43:34.682Z,20.84
2022-10-14T10:46:53.047Z,20.92
2022-10-14T10:52:56.657Z,21.00
2022-10-14T10:56:19.911Z,21.06
2022-10-14T10:58:59.467Z,21.12
2022-10-14T11:02:14.091Z,21.16
2022-10-14T11:05:16.085Z,21.23
2022-10-14T11:08:40.844Z,21.28
2022-10-14T11:11:58.608Z,21.32
2022-10-14T11:15:05.553Z,21.34
2022-10-14T11:18:26.941Z,21.35
2022-10-14T11:21:25.399Z,21.44
2022-10-14T11:24:31.112Z,21.52
2022-10-14T11:27:27.906Z,21.61
2022-10-14T11:30:23.835Z,21.68
2022-10-14T11:33:15.415Z,21.75
2022-10-14T11:36:00.795Z,21.83
2022-10-14T11:39:02.244Z,21.91
2022-10-14T11:42:01.694Z,22.02
2022-10-14T11:44:40.459Z,22.10
2022-10-14T11:47:34.349Z,22.14
2022-10-14T11:50:22.778Z,22.16
2022-10-14T11:52:59.760Z,22.21
2022-10-14T11:55:35.635Z,22.28
2022-10-14T11:58:14.612Z,22.34
2022-10-14T12:01:03.019Z,22.37
2022-10-14T12:03:48.524Z,22.44
2022-10-14T12:07:08.916Z,22.49
2022-10-14T12:09:47.714Z,22.51
2022-10-14T12:12:20.062Z,22.54
2022-10-14T12:14:59.242Z,22.55
2022-10-14T12:17:38.433Z,22.55
2022-10-14T12:20:44.824Z,22.56
2022-10-14T12:23:29.096Z,22.57
2022-10-14T12:26:24.627Z,22.58
2022-10-14T12:28:54.180Z,22.61
2022-10-14T12:31:28.401Z,22.66
2022-10-14T12:34:13.913Z,22.78
2022-10-14T12:36:50.863Z,22.93
2022-10-14T12:39:18.294Z,23.04
2022-10-14T12:41:59.604Z,23.14
2022-10-14T12:44:56.341Z,23.30
2022-10-14T12:47:36.217Z,23.46
2022-10-14T12:50:34.538Z,23.61
2022-10-14T12:53:15.903Z,23.80
2022-10-14T12:56:01.884Z,24.04
2022-10-14T12:58:37.440Z,24.13
2022-10-14T13:01:22.018Z,24.23
2022-10-14T13:04:08.439Z,24.48
2022-10-14T13:06:42.395Z,24.67
2022-10-14T13:09:13.918Z,24.87
2022-10-14T13:11:42.704Z,25.22
2022-10-14T13:14:27.352Z,25.42
2022-10-14T13:16:58.449Z,25.56
2022-10-14T13:19:34.998Z,25.72
2022-10-14T13:22:05.685Z,25.87
2022-10-14T13:24:39.890Z,26.03
2022-10-14T13:27:22.971Z,25.99
2022-10-14T13:30:06.514Z,26.23
2022-10-14T13:32:47.263Z,26.24
2022-10-14T13:35:29.984Z,26.23
2022-10-14T13:38:28.544Z,26.40
2022-10-14T13:40:58.253Z,26.77
2022-10-14T13:43:43.496Z,26.86
2022-10-14T13:46:39.319Z,26.83
2022-10-14T13:49:20.467Z,26.99
2022-10-14T13:52:05.765Z,27.04
2022-10-14T13:54:33.755Z,27.03
2022-10-14T13:57:53.977Z,27.18
2022-10-14T14:00:40.647Z,27.30
2022-10-14T14:03:43.369Z,27.37
2022-10-14T14:06:18.133Z,27.46
2022-10-14T14:08:59.919Z,27.61
2022-10-14T14:11:35.541Z,27.64
2022-10-14T14:14:29.470Z,27.72
2022-10-14T14:16:59.773Z,27.86
2022-10-14T14:19:29.873Z,27.93
2022-10-14T14:22:23.412Z,27.92
2022-10-14T14:24:52.590Z,27.90
2022-10-14T14:27:24.024Z,27.93
2022-10-14T14:29:53.930Z,28.04
2022-10-14T14:32:28.907Z,28.15
2022-10-14T14:34:57.001Z,28.17
2022-10-14T14:40:27.444Z,28.30
2022-10-14T14:43:00.614Z,28.32
2022-10-14T14:45:32.421Z,28.29
2022-10-14T14:48:06.886Z,28.33
2022-10-14T14:50:38.863Z,28.35
2022-10-14T14:53:15.359Z,28.28
2022-10-14T14:55:54.776Z,28.29
2022-10-14T14:58:28.518Z,28.28
2022-10-14T15:00:57.158Z,28.28
2022-10-14T15:03:27.559Z,28.23
2022-10-14T15:06:05.082Z,28.13
2022-10-14T15:08:39.166Z,28.13
2022-10-14T15:11:06.981Z,28.15
2022-10-14T15:13:40.850Z,28.02
2022-10-14T15:16:08.637Z,27.75
2022-10-14T15:18:37.876Z,27.34
2022-10-14T15:21:11.695Z,26.87
2022-10-14T15:23:53.316Z,26.37
2022-10-14T15:26:36.537Z,25.87
2022-10-14T15:32:04.990Z,24.74
2022-10-14T15:34:35.717Z,24.31
2022-10-14T15:37:03.214Z,23.78
2022-10-14T15:39:31.020Z,23.36
2022-10-14T15:41:58.557Z,22.98
2022-10-14T15:44:27.605Z,22.65
2022-10-14T15:47:15.797Z,22.30
2022-10-14T15:49:45.720Z,21.94
2022-10-14T15:52:19.409Z,21.65
2022-10-14T15:54:50.842Z,21.37
2022-10-14T15:57:18.344Z,21.12
2022-10-14T15:59:49.203Z,20.95
2022-10-14T16:02:32.855Z,20.75
2022-10-14T16:05:19.222Z,20.60
2022-10-14T16:07:48.449Z,20.38
2022-10-14T16:10:21.699Z,20.21
2022-10-14T16:12:50.264Z,20.06
2022-10-14T16:15:46.574Z,19.84
2022-10-14T16:18:14.796Z,19.67
2022-10-14T16:20:42.331Z,19.55
2022-10-14T16:23:23.211Z,19.44
2022-10-14T16:25:53.573Z,19.31
2022-10-14T16:28:21.786Z,19.18
2022-10-14T16:30:50.222Z,19.10
2022-10-14T16:33:21.605Z,19.01
2022-10-14T16:35:56.542Z,18.92
2022-10-14T16:38:24.773Z,18.83
2022-10-14T16:40:57.868Z,18.71
2022-10-14T16:43:26.932Z,18.62
2022-10-14T16:45:59.429Z,18.55
2022-10-14T16:48:28.163Z,18.50
2022-10-14T16:50:56.520Z,18.42
2022-10-14T16:53:41.446Z,18.37
2022-10-14T16:56:32.695Z,18.28
2022-10-14T16:59:01.832Z,18.19
2022-10-14T17:01:30.475Z,18.09
2022-10-14T17:03:58.675Z,18.03
2022-10-14T17:06:27.268Z,17.98
2022-10-14T17:08:55.187Z,17.92
2022-10-14T17:11:23.064Z,17.86
2022-10-14T17:13:54.832Z,17.84
2022-10-14T17:16:22.985Z,17.81
2022-10-14T17:18:50.748Z,17.78
2022-10-14T17:21:18.549Z,17.72
2022-10-14T17:23:47.119Z,17.70
2022-10-14T17:26:18.592Z,17.68
2022-10-14T17:28:47.266Z,17.64
2022-10-14T17:31:19.475Z,17.58
2022-10-14T17:33:47.426Z,17.55
2022-10-14T17:36:20.608Z,17.54
2022-10-14T17:38:50.711Z,17.54
2022-10-14T17:41:19.904Z,17.52
2022-10-14T17:43:50.459Z,17.53
2022-10-14T17:46:21.297Z,17.53
2022-10-14T17:48:52.247Z,17.52
2022-10-14T17:51:24.790Z,17.55
2022-10-14T17:54:02.650Z,17.57
2022-10-14T17:56:32.554Z,17.56
2022-10-14T17:59:03.813Z,17.52
2022-10-14T18:01:37.814Z,17.50
2022-10-14T18:04:18.210Z,17.49
2022-10-14T18:06:47.613Z,17.49
2022-10-14T18:09:15.218Z,17.48
2022-10-14T18:14:31.169Z,17.46
2022-10-14T18:16:59.431Z,17.44
2022-10-14T18:19:27.749Z,17.40
2022-10-14T18:21:55.670Z,17.36
2022-10-14T18:24:23.616Z,17.31
2022-10-14T18:26:53.297Z,17.26
2022-10-14T18:29:21.171Z,17.20
2022-10-14T18:34:25.525Z,17.14
2022-10-14T18:36:53.030Z,17.09
2022-10-14T18:39:20.602Z,17.05
2022-10-14T18:41:48.939Z,17.01
2022-10-14T18:44:16.745Z,17.02
2022-10-14T18:46:45.393Z,16.97
2022-10-14T18:49:13.516Z,16.94
2022-10-14T18:51:42.062Z,16.87
2022-10-14T18:54:18.804Z,16.80
2022-10-14T18:56:47.604Z,16.75
2022-10-14T18:59:19.285Z,16.74
2022-10-14T19:01:53.243Z,16.73
2022-10-14T19:04:27.611Z,16.69
2022-10-14T19:06:58.657Z,16.67
2022-10-14T19:09:29.697Z,16.67
2022-10-14T19:11:59.223Z,16.64
2022-10-14T19:14:28.729Z,16.61
2022-10-14T19:16:56.393Z,16.60
2022-10-14T19:19:24.182Z,16.59
2022-10-14T19:21:54.506Z,16.55
2022-10-14T19:24:22.719Z,16.53
2022-10-14T19:26:50.518Z,16.50
2022-10-14T19:29:18.272Z,16.48
2022-10-14T19:31:45.992Z,16.47
2022-10-14T19:34:16.187Z,16.47
2022-10-14T19:36:45.409Z,16.43
2022-10-14T19:39:16.693Z,16.41
2022-10-14T19:41:46.720Z,16.41
2022-10-14T19:44:16.488Z,16.38
2022-10-14T19:46:44.908Z,16.38
2022-10-14T19:49:15.223Z,16.36
2022-10-14T19:51:43.842Z,16.38
2022-10-14T19:54:13.023Z,16.37
2022-10-14T19:56:41.098Z,16.35
2022-10-14T19:59:09.696Z,16.31
2022-10-14T20:01:37.470Z,16.28
2022-10-14T20:04:05.192Z,16.27
2022-10-14T20:06:35.831Z,16.26
2022-10-14T20:09:05.411Z,16.26
2022-10-14T20:11:34.176Z,16.23
2022-10-14T20:14:09.313Z,16.21
2022-10-14T20:16:38.129Z,16.19
2022-10-14T20:19:15.308Z,16.19
2022-10-14T20:21:43.375Z,16.18
2022-10-14T20:24:12.838Z,16.19
2022-10-14T20:26:41.527Z,16.16
2022-10-14T20:29:09.441Z,16.16
2022-10-14T20:31:40.956Z,16.14
2022-10-14T20:34:18.448Z,16.14
2022-10-14T20:36:54.669Z,16.14
2022-10-14T20:39:28.816Z,16.12
2022-10-14T20:42:07.666Z,16.11
2022-10-14T20:47:13.589Z,16.07
2022-10-14T20:49:41.447Z,16.05
2022-10-14T20:52:12.204Z,16.04
2022-10-14T20:54:42.835Z,16.03
2022-10-14T20:57:13.734Z,16.02
2022-10-14T20:59:46.787Z,16.02
2022-10-14T21:02:23.423Z,15.97
2022-10-14T21:04:57.028Z,15.94
2022-10-14T21:07:28.069Z,15.91
2022-10-14T21:10:01.224Z,15.87
2022-10-14T21:12:33.707Z,15.86
2022-10-14T21:15:04.689Z,15.82
2022-10-14T21:17:32.655Z,15.79
2022-10-14T21:20:00.271Z,15.77
2022-10-14T21:22:28.615Z,15.76
2022-10-14T21:24:56.411Z,15.76
2022-10-14T21:27:25.539Z,15.76
2022-10-14T21:32:28.159Z,15.74
2022-10-14T21:34:55.871Z,15.71
2022-10-14T21:37:23.680Z,15.70
2022-10-14T21:39:51.340Z,15.71
2022-10-14T21:42:19.134Z,15.70
2022-10-14T21:44:46.638Z,15.72
2022-10-14T21:47:14.232Z,15.74
2022-10-14T21:49:41.964Z,15.76
2022-10-14T21:52:09.993Z,15.78
2022-10-14T21:54:37.623Z,15.79
2022-10-14T21:57:05.369Z,15.78
2022-10-14T21:59:32.842Z,15.80
2022-10-14T22:02:00.302Z,15.81
2022-10-14T22:04:28.231Z,15.85
2022-10-14T22:06:55.686Z,15.86
2022-10-14T22:09:23.290Z,15.86
2022-10-14T22:11:54.492Z,15.85
2022-10-14T22:14:21.999Z,15.86
2022-10-14T22:16:49.739Z,15.89
2022-10-14T22:19:17.465Z,15.88
2022-10-14T22:21:46.426Z,15.89
2022-10-14T22:24:14.327Z,15.91
2022-10-14T22:26:42.941Z,15.89
2022-10-14T22:29:16.105Z,15.86
2022-10-14T22:31:45.094Z,15.83
2022-10-14T22:34:16.485Z,15.81
2022-10-14T22:36:44.857Z,15.81
2022-10-14T22:39:16.006Z,15.81
2022-10-14T22:41:43.510Z,15.77
2022-10-14T22:44:11.859Z,15.79
2022-10-14T22:46:40.792Z,15.78
2022-10-14T22:49:08.440Z,15.80
2022-10-14T22:51:43.011Z,15.82
2022-10-14T22:54:11.477Z,15.83
2022-10-14T22:56:39.597Z,15.85
2022-10-14T22:59:12.074Z,15.87
2022-10-14T23:01:42.117Z,15.86
2022-10-14T23:04:10.818Z,15.86
2022-10-14T23:06:40.279Z,15.91
2022-10-14T23:09:07.978Z,15.90
2022-10-14T23:11:35.433Z,15.88
2022-10-14T23:14:07.095Z,15.86
2022-10-14T23:16:36.061Z,15.84
2022-10-14T23:19:03.654Z,15.84
2022-10-14T23:21:34.581Z,15.84
2022-10-14T23:24:07.356Z,15.85
2022-10-14T23:26:35.670Z,15.84
2022-10-14T23:29:11.545Z,15.85
2022-10-14T23:31:40.830Z,15.86
2022-10-14T23:34:12.286Z,15.83
2022-10-14T23:36:40.660Z,15.79
2022-10-14T23:39:08.621Z,15.80
2022-10-14T23:41:36.539Z,15.81
2022-10-14T23:44:05.683Z,15.82
2022-10-14T23:46:33.368Z,15.82
2022-10-14T23:49:07.711Z,15.82
2022-10-14T23:51:42.643Z,15.84
2022-10-14T23:54:10.672Z,15.83
2022-10-14T23:56:38.243Z,15.83
2022-10-14T23:59:05.684Z,15.82
